createdAt,value
2019-05-29T00:00:33.069Z,3.97
2019-05-29T00:03:02.081Z,4.30
2019-05-29T00:05:31.094Z,4.37
2019-05-29T00:08:00.096Z,3.77
2019-05-29T00:10:29.264Z,3.97
2019-05-29T00:12:58.287Z,4.40
2019-05-29T00:15:27.296Z,3.80
2019-05-29T00:17:56.230Z,4.13
2019-05-29T00:20:25.222Z,4.10
2019-05-29T00:22:54.406Z,4.20
2019-05-29T00:25:23.418Z,4.03
2019-05-29T00:27:52.413Z,4.17
2019-05-29T00:30:21.763Z,4.10
2019-05-29T00:32:50.741Z,3.67
2019-05-29T00:35:19.736Z,3.97
2019-05-29T00:37:48.739Z,3.77
2019-05-29T00:40:17.865Z,3.70
2019-05-29T00:42:46.991Z,4.40
2019-05-29T00:45:16.191Z,3.90
2019-05-29T00:47:45.046Z,3.80
2019-05-29T00:50:14.641Z,3.80
2019-05-29T00:52:43.976Z,3.67
2019-05-29T00:55:14.573Z,3.93
2019-05-29T00:57:43.880Z,4.57
2019-05-29T01:00:13.297Z,3.73
2019-05-29T01:02:42.429Z,4.07
2019-05-29T01:05:12.035Z,4.07
2019-05-29T01:07:41.343Z,4.17
2019-05-29T01:10:10.654Z,3.57
2019-05-29T01:12:39.720Z,3.63
2019-05-29T01:15:09.257Z,4.13
2019-05-29T01:17:38.287Z,4.67
2019-05-29T01:20:08.182Z,4.90
2019-05-29T01:22:37.349Z,4.70
2019-05-29T01:25:07.113Z,5.17
2019-05-29T01:27:36.132Z,4.20
2019-05-29T01:30:05.461Z,4.03
2019-05-29T01:32:34.448Z,4.60
2019-05-29T01:35:03.475Z,5.10
2019-05-29T01:37:32.384Z,4.80
2019-05-29T01:40:16.634Z,5.20
2019-05-29T01:42:32.720Z,5.80
2019-05-29T01:45:07.937Z,4.90
2019-05-29T01:47:32.616Z,5.47
2019-05-29T01:50:01.621Z,4.50
2019-05-29T01:52:30.560Z,4.83
2019-05-29T01:54:59.516Z,5.83
2019-05-29T01:57:28.821Z,4.83
2019-05-29T01:59:57.768Z,5.30
2019-05-29T02:02:26.713Z,5.70
2019-05-29T02:04:56.085Z,5.50
2019-05-29T02:07:25.109Z,5.37
2019-05-29T02:09:54.162Z,4.67
2019-05-29T02:12:24.450Z,4.83
2019-05-29T02:14:53.780Z,5.80
2019-05-29T02:17:23.834Z,4.60
2019-05-29T02:19:53.022Z,4.77
2019-05-29T02:22:23.039Z,4.50
2019-05-29T02:24:52.205Z,5.43
2019-05-29T02:27:21.428Z,4.60
2019-05-29T02:29:50.586Z,4.60
2019-05-29T02:32:19.703Z,5.30
2019-05-29T02:34:49.073Z,4.37
2019-05-29T02:37:18.298Z,4.67
2019-05-29T02:39:47.703Z,4.83
2019-05-29T02:42:16.719Z,4.47
2019-05-29T02:44:45.737Z,4.53
2019-05-29T02:47:14.660Z,4.80
2019-05-29T02:49:43.602Z,4.37
2019-05-29T02:52:12.611Z,4.67
2019-05-29T02:54:41.875Z,4.07
2019-05-29T02:57:11.149Z,4.57
2019-05-29T02:59:40.067Z,5.00
2019-05-29T03:02:09.772Z,4.60
2019-05-29T03:04:39.174Z,4.80
2019-05-29T03:07:08.378Z,4.27
2019-05-29T03:09:37.472Z,4.33
2019-05-29T03:12:06.505Z,4.90
2019-05-29T03:14:36.894Z,5.37
2019-05-29T03:17:05.908Z,5.60
2019-05-29T03:19:35.051Z,5.07
2019-05-29T03:22:04.202Z,5.33
2019-05-29T03:24:34.917Z,5.60
2019-05-29T03:27:03.857Z,5.50
2019-05-29T03:29:34.270Z,5.10
2019-05-29T03:32:03.346Z,4.83
2019-05-29T03:34:39.459Z,4.53
2019-05-29T03:37:02.929Z,4.30
2019-05-29T03:39:32.324Z,4.63
2019-05-29T03:42:01.442Z,4.63
2019-05-29T03:44:30.713Z,4.90
2019-05-29T03:47:00.092Z,5.67
2019-05-29T03:49:30.981Z,5.77
2019-05-29T03:52:00.225Z,5.80
2019-05-29T03:54:30.740Z,5.77
2019-05-29T03:56:59.929Z,5.17
2019-05-29T03:59:30.542Z,5.80
2019-05-29T04:02:00.000Z,5.10
2019-05-29T04:04:29.073Z,5.60
2019-05-29T04:06:58.010Z,5.13
2019-05-29T04:09:27.261Z,6.43
2019-05-29T04:11:56.802Z,4.77
2019-05-29T04:14:27.326Z,6.13
2019-05-29T04:17:00.252Z,5.83
2019-05-29T04:19:30.533Z,6.13
2019-05-29T04:22:05.675Z,5.90
2019-05-29T04:24:39.361Z,6.03
2019-05-29T04:27:12.369Z,5.17
2019-05-29T04:29:43.107Z,6.23
2019-05-29T04:32:12.470Z,5.10
2019-05-29T04:34:41.393Z,5.90
2019-05-29T04:37:10.405Z,4.97
2019-05-29T04:39:39.753Z,6.83
2019-05-29T04:42:08.701Z,6.30
2019-05-29T04:44:38.969Z,5.50
2019-05-29T04:47:11.632Z,5.77
2019-05-29T04:49:39.872Z,5.13
2019-05-29T04:52:09.121Z,5.17
2019-05-29T04:54:40.025Z,5.33
2019-05-29T04:57:08.781Z,5.07
2019-05-29T04:59:39.178Z,5.13
2019-05-29T05:02:08.267Z,4.60
2019-05-29T05:04:37.559Z,4.70
2019-05-29T05:07:06.485Z,4.37
2019-05-29T05:09:35.524Z,4.17
2019-05-29T05:12:04.544Z,5.10
2019-05-29T05:14:33.702Z,4.50
2019-05-29T05:17:02.785Z,4.30
2019-05-29T05:19:32.126Z,5.10
2019-05-29T05:22:01.113Z,4.70
2019-05-29T05:24:30.187Z,4.57
2019-05-29T05:26:59.446Z,5.17
2019-05-29T05:29:28.656Z,5.13
2019-05-29T05:31:57.644Z,5.13
2019-05-29T05:34:26.581Z,4.60
2019-05-29T05:36:55.593Z,4.63
2019-05-29T05:39:24.575Z,4.77
2019-05-29T05:41:53.616Z,4.90
2019-05-29T05:44:22.884Z,5.00
2019-05-29T05:46:51.876Z,5.10
2019-05-29T05:49:20.887Z,5.67
2019-05-29T05:51:50.168Z,6.10
2019-05-29T05:54:19.508Z,5.73
2019-05-29T05:56:48.681Z,4.80
2019-05-29T05:59:17.685Z,6.00
2019-05-29T06:01:46.616Z,5.50
2019-05-29T06:04:15.621Z,6.20
2019-05-29T06:06:44.632Z,5.53
2019-05-29T06:09:13.972Z,5.70
2019-05-29T06:11:42.960Z,6.30
2019-05-29T06:14:12.164Z,5.67
2019-05-29T06:16:41.183Z,5.70
2019-05-29T06:19:10.222Z,5.50
2019-05-29T06:21:39.267Z,5.53
2019-05-29T06:24:08.281Z,5.60
2019-05-29T06:26:38.877Z,5.72
2019-05-29T06:29:07.988Z,4.97
2019-05-29T06:31:37.360Z,5.33
2019-05-29T06:34:06.422Z,5.55
2019-05-29T06:36:35.519Z,5.60
2019-05-29T06:39:06.855Z,5.17
2019-05-29T06:41:35.853Z,5.08
2019-05-29T06:44:04.836Z,4.80
2019-05-29T06:46:34.348Z,5.30
2019-05-29T06:49:03.471Z,5.05
2019-05-29T06:51:32.408Z,5.13
2019-05-29T06:54:01.888Z,5.33
2019-05-29T06:56:31.160Z,5.53
2019-05-29T06:59:00.026Z,5.35
2019-05-29T07:01:29.351Z,6.72
2019-05-29T07:04:11.208Z,6.10
2019-05-29T07:06:29.356Z,5.17
2019-05-29T07:08:58.280Z,5.37
2019-05-29T07:11:27.209Z,5.80
2019-05-29T07:13:56.227Z,5.37
2019-05-29T07:16:42.886Z,5.53
2019-05-29T07:19:24.001Z,5.70
2019-05-29T07:21:26.636Z,5.37
2019-05-29T07:23:55.542Z,5.53
2019-05-29T07:26:24.468Z,5.62
2019-05-29T07:29:07.546Z,5.42
2019-05-29T07:31:24.042Z,4.92
2019-05-29T07:33:53.037Z,5.42
2019-05-29T07:36:22.345Z,5.28
2019-05-29T07:39:02.823Z,5.60
2019-05-29T07:41:22.379Z,6.10
2019-05-29T07:43:52.149Z,5.35
2019-05-29T07:46:21.360Z,5.00
2019-05-29T07:48:50.659Z,5.15
2019-05-29T07:51:19.744Z,5.60
2019-05-29T07:53:49.066Z,4.62
2019-05-29T07:56:22.650Z,4.35
2019-05-29T07:59:01.058Z,4.45
2019-05-29T08:01:19.545Z,4.28
2019-05-29T08:03:49.721Z,4.40
2019-05-29T08:06:18.772Z,4.12
2019-05-29T08:08:47.714Z,3.87
2019-05-29T08:11:16.708Z,3.50
2019-05-29T08:13:45.895Z,3.58
2019-05-29T08:16:14.745Z,3.60
2019-05-29T08:18:46.176Z,4.08
2019-05-29T08:21:14.508Z,3.72
2019-05-29T08:23:44.353Z,3.42
2019-05-29T08:26:13.490Z,3.27
2019-05-29T08:28:42.806Z,3.45
2019-05-29T08:31:12.221Z,3.65
2019-05-29T08:33:41.206Z,3.52
2019-05-29T08:36:10.493Z,3.25
2019-05-29T08:38:39.357Z,3.70
2019-05-29T08:41:08.436Z,2.75
2019-05-29T08:43:37.360Z,3.08
2019-05-29T08:46:06.369Z,2.70
2019-05-29T08:48:35.680Z,2.85
2019-05-29T08:51:04.757Z,2.77
2019-05-29T08:53:33.775Z,3.35
2019-05-29T08:56:02.836Z,2.47
2019-05-29T08:58:31.840Z,2.92
2019-05-29T09:01:00.829Z,3.10
2019-05-29T09:03:29.843Z,2.90
2019-05-29T09:06:08.391Z,2.60
2019-05-29T09:08:29.562Z,3.00
2019-05-29T09:10:58.486Z,3.20
2019-05-29T09:13:27.784Z,3.08
2019-05-29T09:15:56.704Z,3.72
2019-05-29T09:18:25.993Z,3.37
2019-05-29T09:21:03.464Z,3.15
2019-05-29T09:23:25.673Z,3.77
2019-05-29T09:25:54.597Z,3.80
2019-05-29T09:28:22.237Z,3.02
2019-05-29T09:30:51.732Z,3.70
2019-05-29T09:33:22.011Z,3.22
2019-05-29T09:35:52.705Z,3.70
2019-05-29T09:38:22.919Z,3.05
2019-05-29T09:40:52.977Z,3.10
2019-05-29T09:43:27.031Z,2.90
2019-05-29T09:45:52.816Z,2.80
2019-05-29T09:48:26.445Z,2.60
2019-05-29T09:50:52.969Z,2.67
2019-05-29T09:53:21.982Z,1.60
2019-05-29T09:55:52.050Z,2.22
2019-05-29T09:58:21.896Z,1.57
2019-05-29T10:01:09.692Z,1.40
2019-05-29T10:03:21.805Z,1.50
2019-05-29T10:05:51.126Z,1.22
2019-05-29T10:08:20.138Z,2.00
2019-05-29T10:10:49.147Z,1.67
2019-05-29T10:13:18.232Z,1.70
2019-05-29T10:15:47.232Z,1.35
2019-05-29T10:18:35.409Z,1.30
2019-05-29T10:21:05.101Z,1.00
2019-05-29T10:23:34.229Z,1.15
2019-05-29T10:26:04.745Z,0.90
2019-05-29T10:28:50.438Z,0.98
2019-05-29T10:31:05.408Z,1.10
2019-05-29T10:33:34.493Z,0.90
2019-05-29T10:36:04.398Z,1.07
2019-05-29T10:38:33.771Z,0.72
2019-05-29T10:41:06.736Z,0.88
2019-05-29T10:43:35.008Z,0.80
2019-05-29T10:46:04.351Z,0.70
2019-05-29T10:48:33.520Z,0.85
2019-05-29T10:51:02.522Z,1.00
2019-05-29T10:53:44.318Z,1.02
2019-05-29T10:56:13.380Z,1.00
2019-05-29T10:58:49.601Z,0.90
2019-05-29T11:01:13.416Z,1.02
2019-05-29T11:03:42.349Z,1.10
2019-05-29T11:06:11.344Z,1.00
2019-05-29T11:08:40.346Z,0.90
2019-05-29T11:11:09.377Z,1.15
2019-05-29T11:13:38.405Z,1.10
2019-05-29T11:16:07.420Z,1.00
2019-05-29T11:18:36.356Z,0.80
2019-05-29T11:21:05.392Z,1.12
2019-05-29T11:23:34.421Z,0.70
2019-05-29T11:26:03.526Z,0.90
2019-05-29T11:28:52.670Z,1.20
2019-05-29T11:31:21.682Z,0.90
2019-05-29T11:33:51.181Z,1.15
2019-05-29T11:36:20.197Z,1.22
2019-05-29T11:38:50.408Z,1.47
2019-05-29T11:41:26.418Z,1.30
2019-05-29T11:43:50.681Z,1.40
2019-05-29T11:46:19.857Z,1.17
2019-05-29T11:48:48.871Z,1.20
2019-05-29T11:51:37.009Z,1.10
2019-05-29T11:54:06.125Z,1.27
2019-05-29T11:56:35.059Z,1.10
2019-05-29T11:59:04.175Z,1.10
2019-05-29T12:01:49.223Z,1.25
2019-05-29T12:04:22.617Z,1.07
2019-05-29T12:06:34.815Z,1.15
2019-05-29T12:09:05.498Z,1.57
2019-05-29T12:11:34.369Z,0.80
2019-05-29T12:14:03.386Z,0.88
2019-05-29T12:16:32.314Z,1.15
2019-05-29T12:19:01.950Z,1.10
2019-05-29T12:21:31.082Z,1.30
2019-05-29T12:24:00.358Z,1.37
2019-05-29T12:26:29.409Z,1.50
2019-05-29T12:29:04.898Z,1.60
2019-05-29T12:31:29.070Z,1.70
2019-05-29T12:34:04.659Z,1.75
2019-05-29T12:36:29.366Z,1.57
2019-05-29T12:38:59.623Z,1.40
2019-05-29T12:41:28.795Z,1.37
2019-05-29T12:44:17.225Z,1.55
2019-05-29T12:46:46.521Z,1.82
2019-05-29T12:49:15.522Z,1.55
2019-05-29T12:51:44.755Z,1.42
2019-05-29T12:54:13.776Z,1.67
2019-05-29T12:56:43.005Z,1.50
2019-05-29T12:59:12.033Z,1.70
2019-05-29T13:01:41.027Z,1.45
2019-05-29T13:04:10.303Z,1.30
2019-05-29T13:06:39.308Z,1.20
2019-05-29T13:09:09.050Z,1.10
2019-05-29T13:11:37.997Z,1.50
2019-05-29T13:14:06.996Z,1.20
2019-05-29T13:16:36.011Z,1.15
2019-05-29T13:19:05.512Z,1.20
2019-05-29T13:21:34.532Z,1.17
2019-05-29T13:24:08.023Z,1.05
2019-05-29T13:26:34.612Z,1.25
2019-05-29T13:29:04.290Z,1.17
2019-05-29T13:31:33.384Z,1.22
2019-05-29T13:34:02.325Z,1.37
2019-05-29T13:36:31.553Z,1.40
2019-05-29T13:39:00.525Z,1.30
2019-05-29T13:41:29.516Z,1.27
2019-05-29T13:43:58.555Z,1.10
2019-05-29T13:46:27.697Z,1.57
2019-05-29T13:48:56.829Z,1.42
2019-05-29T13:51:25.883Z,1.30
2019-05-29T13:54:03.627Z,1.17
2019-05-29T13:56:25.833Z,1.15
2019-05-29T13:58:54.872Z,0.78
2019-05-29T14:01:23.863Z,0.98
2019-05-29T14:03:52.813Z,1.10
2019-05-29T14:06:21.869Z,1.05
2019-05-29T14:08:50.907Z,1.32
2019-05-29T14:11:20.029Z,1.62
2019-05-29T14:13:49.040Z,1.32
2019-05-29T14:16:18.044Z,1.35
2019-05-29T14:18:47.072Z,1.65
2019-05-29T14:21:16.069Z,1.60
2019-05-29T14:23:45.073Z,1.45
2019-05-29T14:26:14.112Z,1.42
2019-05-29T14:28:43.349Z,1.40
2019-05-29T14:31:12.369Z,1.47
2019-05-29T14:33:41.565Z,1.27
2019-05-29T14:36:11.448Z,1.22
2019-05-29T14:38:40.657Z,1.22
2019-05-29T14:41:09.946Z,1.40
2019-05-29T14:43:39.074Z,1.32
2019-05-29T14:46:08.221Z,1.22
2019-05-29T14:48:37.236Z,1.17
2019-05-29T14:51:06.588Z,1.20
2019-05-29T14:53:35.883Z,1.52
2019-05-29T14:56:05.094Z,1.00
2019-05-29T14:58:34.138Z,0.95
2019-05-29T15:01:03.186Z,0.98
2019-05-29T15:03:32.224Z,1.10
2019-05-29T15:06:01.177Z,1.10
2019-05-29T15:08:30.177Z,1.02
2019-05-29T15:10:59.112Z,1.00
2019-05-29T15:16:06.489Z,1.00
2019-05-29T15:18:35.602Z,1.33
2019-05-29T15:21:04.911Z,1.00
2019-05-29T15:23:34.245Z,0.88
2019-05-29T15:26:03.282Z,0.85
2019-05-29T15:28:32.281Z,1.40
2019-05-29T15:31:01.353Z,1.10
2019-05-29T15:33:30.282Z,1.20
2019-05-29T15:35:59.296Z,1.50
2019-05-29T15:38:29.013Z,1.20
2019-05-29T15:40:58.025Z,1.00
2019-05-29T15:43:26.896Z,1.00
2019-05-29T15:45:55.866Z,1.42
2019-05-29T15:48:24.823Z,1.22
2019-05-29T15:50:53.776Z,1.37
2019-05-29T15:53:22.782Z,1.27
2019-05-29T15:55:51.822Z,1.05
2019-05-29T15:58:20.847Z,1.10
2019-05-29T16:00:49.865Z,1.07
2019-05-29T16:03:18.953Z,1.67
2019-05-29T16:05:48.086Z,1.17
2019-05-29T16:08:18.173Z,1.17
2019-05-29T16:11:06.485Z,1.23
2019-05-29T16:13:35.486Z,1.27
2019-05-29T16:16:04.581Z,1.30
2019-05-29T16:18:33.685Z,1.20
2019-05-29T16:21:02.641Z,1.17
2019-05-29T16:23:35.880Z,1.40
2019-05-29T16:26:02.411Z,1.77
2019-05-29T16:28:31.360Z,1.73
2019-05-29T16:31:00.506Z,1.98
2019-05-29T16:33:29.545Z,2.08
2019-05-29T16:35:58.411Z,1.75
2019-05-29T16:38:27.330Z,1.92
2019-05-29T16:40:56.268Z,1.45
2019-05-29T16:43:25.205Z,1.52
2019-05-29T16:45:54.337Z,1.13
2019-05-29T16:48:23.345Z,1.40
2019-05-29T16:50:52.301Z,1.67
2019-05-29T16:53:21.264Z,1.70
2019-05-29T16:55:53.945Z,1.55
2019-05-29T16:58:21.328Z,1.57
2019-05-29T17:00:50.398Z,1.82
2019-05-29T17:03:19.724Z,1.70
2019-05-29T17:05:48.799Z,1.53
2019-05-29T17:08:18.130Z,1.45
2019-05-29T17:10:47.545Z,1.57
2019-05-29T17:13:16.641Z,1.90
2019-05-29T17:15:45.692Z,1.87
2019-05-29T17:18:14.771Z,1.67
2019-05-29T17:20:44.913Z,1.70
2019-05-29T17:23:15.313Z,1.82
2019-05-29T17:25:44.542Z,8.33
2019-05-29T17:28:14.833Z,2.93
2019-05-29T17:30:44.218Z,2.93
2019-05-29T17:33:13.208Z,8.05
2019-05-29T17:35:42.401Z,9.90
2019-05-29T17:38:11.469Z,3.60
2019-05-29T17:40:40.480Z,2.70
2019-05-29T17:43:09.509Z,1.98
2019-05-29T17:45:38.437Z,2.30
2019-05-29T17:48:07.543Z,2.60
2019-05-29T17:50:36.402Z,2.30
2019-05-29T17:53:05.348Z,4.30
2019-05-29T17:55:34.628Z,2.03
2019-05-29T17:58:03.729Z,2.00
2019-05-29T18:00:32.750Z,2.80
2019-05-29T18:03:01.997Z,2.10
2019-05-29T18:05:31.245Z,25.15
2019-05-29T18:08:01.879Z,5.60
2019-05-29T18:10:31.337Z,3.00
2019-05-29T18:13:00.321Z,2.00
2019-05-29T18:15:29.324Z,1.90
2019-05-29T18:17:58.759Z,1.80
2019-05-29T18:20:27.936Z,1.80
2019-05-29T18:22:56.957Z,1.60
2019-05-29T18:25:26.064Z,1.67
2019-05-29T18:27:55.264Z,1.90
2019-05-29T18:30:24.458Z,1.90
2019-05-29T18:32:53.473Z,1.80
2019-05-29T18:35:23.050Z,2.40
2019-05-29T18:37:52.046Z,1.72
2019-05-29T18:40:22.312Z,2.17
2019-05-29T18:42:51.675Z,2.17
2019-05-29T18:45:24.257Z,2.10
2019-05-29T18:47:52.034Z,2.10
2019-05-29T18:50:21.574Z,2.70
2019-05-29T18:52:51.055Z,2.50
2019-05-29T18:55:20.777Z,2.43
2019-05-29T18:57:49.937Z,2.67
2019-05-29T19:00:19.258Z,2.60
2019-05-29T19:02:48.541Z,2.63
2019-05-29T19:05:17.844Z,2.10
2019-05-29T19:07:46.869Z,2.10
2019-05-29T19:10:15.869Z,2.17
2019-05-29T19:12:44.884Z,2.03
2019-05-29T19:15:14.390Z,1.77
2019-05-29T19:17:43.410Z,1.70
2019-05-29T19:20:13.889Z,1.80
2019-05-29T19:22:43.148Z,2.20
2019-05-29T19:25:12.253Z,2.00
2019-05-29T19:27:42.274Z,1.83
2019-05-29T19:30:12.077Z,2.00
2019-05-29T19:32:41.158Z,2.10
2019-05-29T19:35:10.553Z,1.83
2019-05-29T19:37:39.564Z,2.00
2019-05-29T19:43:40.902Z,2.20
2019-05-29T19:46:09.916Z,9.90
2019-05-29T19:48:39.162Z,18.03
2019-05-29T19:51:08.191Z,3.27
2019-05-29T19:53:37.219Z,2.63
2019-05-29T19:56:06.242Z,2.50
2019-05-29T19:58:36.215Z,2.57
2019-05-29T20:01:05.469Z,3.17
2019-05-29T20:03:34.698Z,3.53
2019-05-29T20:06:03.731Z,2.90
2019-05-29T20:08:35.877Z,3.67
2019-05-29T20:11:03.882Z,2.97
2019-05-29T20:17:14.060Z,3.00
2019-05-29T20:19:43.060Z,2.80
2019-05-29T20:22:11.971Z,2.70
2019-05-29T20:24:40.993Z,3.20
2019-05-29T20:27:09.930Z,3.80
2019-05-29T20:29:38.883Z,3.67
2019-05-29T20:32:07.965Z,3.80
2019-05-29T20:34:36.969Z,3.23
2019-05-29T20:37:05.951Z,3.27
2019-05-29T20:39:36.244Z,3.50
2019-05-29T20:42:05.450Z,3.77
2019-05-29T20:44:34.576Z,3.73
2019-05-29T20:50:48.820Z,3.17
2019-05-29T20:53:18.313Z,3.10
2019-05-29T20:55:47.175Z,2.80
2019-05-29T20:58:24.717Z,2.80
2019-05-29T21:00:46.683Z,3.27
2019-05-29T21:03:15.636Z,2.60
2019-05-29T21:05:44.521Z,2.67
2019-05-29T21:08:13.343Z,3.17
2019-05-29T21:10:43.522Z,2.93
2019-05-29T21:13:12.612Z,3.17
2019-05-29T21:15:41.861Z,3.13
2019-05-29T21:18:11.001Z,2.77
2019-05-29T21:20:40.486Z,3.23
2019-05-29T21:23:09.509Z,3.00
2019-05-29T21:25:38.721Z,3.63
2019-05-29T21:28:07.879Z,3.17
2019-05-29T21:30:37.436Z,3.50
2019-05-29T21:33:06.691Z,3.83
2019-05-29T21:35:36.051Z,3.37
2019-05-29T21:38:05.075Z,3.97
2019-05-29T21:40:33.975Z,4.50
2019-05-29T21:43:02.800Z,3.63
2019-05-29T21:45:31.606Z,3.50
2019-05-29T21:48:00.507Z,3.20
2019-05-29T21:50:29.411Z,4.07
2019-05-29T21:52:58.232Z,3.80
2019-05-29T21:55:27.131Z,3.60
2019-05-29T21:57:56.374Z,4.70
2019-05-29T22:00:35.338Z,4.10
2019-05-29T22:03:04.565Z,4.60
2019-05-29T22:05:33.531Z,4.47
2019-05-29T22:08:02.665Z,4.60
2019-05-29T22:10:31.578Z,5.17
2019-05-29T22:13:01.378Z,4.37
2019-05-29T22:15:30.344Z,4.50
2019-05-29T22:17:59.272Z,5.00
2019-05-29T22:20:28.133Z,5.47
2019-05-29T22:22:57.243Z,5.63
2019-05-29T22:25:26.162Z,4.90
2019-05-29T22:27:55.587Z,5.37
2019-05-29T22:30:24.688Z,5.33
2019-05-29T22:32:53.494Z,5.80
2019-05-29T22:35:22.631Z,4.67
2019-05-29T22:37:51.588Z,5.40
2019-05-29T22:40:21.126Z,5.93
2019-05-29T22:42:49.938Z,5.23
2019-05-29T22:45:18.923Z,4.50
2019-05-29T22:47:47.823Z,5.23
2019-05-29T22:50:16.803Z,5.63
2019-05-29T22:52:45.738Z,5.00
2019-05-29T22:55:14.742Z,5.77
2019-05-29T22:57:43.622Z,5.57
2019-05-29T23:00:13.876Z,5.73
2019-05-29T23:02:43.001Z,5.60
2019-05-29T23:05:12.041Z,5.73
2019-05-29T23:07:40.854Z,6.20
2019-05-29T23:10:10.049Z,5.20
2019-05-29T23:12:39.230Z,6.70
2019-05-29T23:15:08.314Z,6.03
2019-05-29T23:17:37.276Z,6.00
2019-05-29T23:20:06.410Z,6.23
2019-05-29T23:22:35.527Z,6.70
2019-05-29T23:25:04.499Z,5.77
2019-05-29T23:27:33.305Z,6.17
2019-05-29T23:30:03.376Z,6.70
2019-05-29T23:32:32.467Z,6.40
2019-05-29T23:35:01.398Z,6.03
2019-05-29T23:37:30.507Z,6.80
2019-05-29T23:39:59.360Z,6.17
2019-05-29T23:42:28.309Z,6.93
2019-05-29T23:44:57.625Z,6.73
2019-05-29T23:47:26.541Z,6.47
2019-05-29T23:49:55.575Z,5.90
2019-05-29T23:52:24.997Z,6.33
2019-05-29T23:54:53.994Z,6.27
2019-05-29T23:57:22.893Z,6.60
